Auburn, Illinois
Current Conditions -  °F | °C
As of 11:52 PM on Saturday 22 Nov 2014 (Local Time) from KSPI Reporting Station
Few Clouds Few Clouds  
Wind Chill: 52°   Ceiling: Unl
Heat Index: 52°   Visibility: 10mi
Dew Point: 48°   Wind: 16mph
Humidity: 86%   Direction: 180°S
Pressure: 29.85"   Gusts: NA
Location:  39.59°N, 89.75°W
Report Text: KSPI 230552Z AUTO 18014KT 10SM FEW060 11/09 A2985 RMK AO2 SLP107 60000 T01110089 10122 20106 401500033 58013
Loading
Personal Weather Stations






























Interactive Weather Map New forecast layout! Learn more

10-Day Weather Forecast

Advertisements
Track Severe Weather on mobile